sensor_id;sensor_type;location;lat;lon;timestamp;P1;durP1;ratioP1;P2;durP2;ratioP2
56255;SDS011;57229;51.432;-2.598;2024-02-21T00:00:40;13.55;;;5.13;;
56255;SDS011;57229;51.432;-2.598;2024-02-21T00:03:06;16.23;;;5.30;;
56255;SDS011;57229;51.432;-2.598;2024-02-21T00:05:32;19.80;;;5.03;;
56255;SDS011;57229;51.432;-2.598;2024-02-21T00:07:58;16.35;;;6.03;;
56255;SDS011;57229;51.432;-2.598;2024-02-21T00:10:24;15.68;;;5.82;;
56255;SDS011;57229;51.432;-2.598;2024-02-21T00:12:50;17.35;;;5.50;;
56255;SDS011;57229;51.432;-2.598;2024-02-21T00:15:16;20.85;;;6.43;;
56255;SDS011;57229;51.432;-2.598;2024-02-21T00:17:43;20.73;;;6.78;;
56255;SDS011;57229;51.432;-2.598;2024-02-21T00:20:09;18.15;;;6.80;;
56255;SDS011;57229;51.432;-2.598;2024-02-21T00:22:35;29.30;;;6.35;;
56255;SDS011;57229;51.432;-2.598;2024-02-21T00:25:01;19.30;;;6.30;;
56255;SDS011;57229;51.432;-2.598;2024-02-21T00:27:26;25.65;;;6.57;;
56255;SDS011;57229;51.432;-2.598;2024-02-21T00:29:52;14.75;;;5.68;;
56255;SDS011;57229;51.432;-2.598;2024-02-21T00:32:18;19.65;;;5.78;;
56255;SDS011;57229;51.432;-2.598;2024-02-21T00:34:43;17.00;;;5.10;;
56255;SDS011;57229;51.432;-2.598;2024-02-21T00:37:09;16.00;;;5.82;;
56255;SDS011;57229;51.432;-2.598;2024-02-21T00:39:35;14.85;;;5.70;;
56255;SDS011;57229;51.432;-2.598;2024-02-21T00:42:00;15.18;;;5.50;;
56255;SDS011;57229;51.432;-2.598;2024-02-21T00:44:26;10.60;;;5.47;;
56255;SDS011;57229;51.432;-2.598;2024-02-21T00:46:52;16.42;;;5.32;;
56255;SDS011;57229;51.432;-2.598;2024-02-21T00:49:17;17.20;;;5.35;;
56255;SDS011;57229;51.432;-2.598;2024-02-21T00:51:43;11.20;;;4.72;;
56255;SDS011;57229;51.432;-2.598;2024-02-21T00:54:09;14.25;;;5.13;;
56255;SDS011;57229;51.432;-2.598;2024-02-21T00:56:34;7.25;;;4.60;;
56255;SDS011;57229;51.432;-2.598;2024-02-21T00:59:00;19.00;;;5.07;;
56255;SDS011;57229;51.432;-2.598;2024-02-21T01:01:25;15.40;;;4.85;;
56255;SDS011;57229;51.432;-2.598;2024-02-21T01:03:51;13.27;;;4.95;;
56255;SDS011;57229;51.432;-2.598;2024-02-21T01:06:20;13.85;;;5.13;;
56255;SDS011;57229;51.432;-2.598;2024-02-21T01:08:46;12.02;;;5.30;;
56255;SDS011;57229;51.432;-2.598;2024-02-21T01:11:13;10.48;;;4.53;;
56255;SDS011;57229;51.432;-2.598;2024-02-21T01:13:39;10.70;;;4.95;;
56255;SDS011;57229;51.432;-2.598;2024-02-21T01:16:05;12.77;;;4.93;;
56255;SDS011;57229;51.432;-2.598;2024-02-21T01:18:32;14.15;;;5.40;;
56255;SDS011;57229;51.432;-2.598;2024-02-21T01:20:58;11.85;;;4.78;;
56255;SDS011;57229;51.432;-2.598;2024-02-21T01:23:24;14.57;;;5.30;;
56255;SDS011;57229;51.432;-2.598;2024-02-21T01:26:10;16.40;;;5.38;;
56255;SDS011;57229;51.432;-2.598;2024-02-21T01:28:38;13.75;;;5.20;;
56255;SDS011;57229;51.432;-2.598;2024-02-21T01:31:03;14.77;;;5.22;;
56255;SDS011;57229;51.432;-2.598;2024-02-21T01:33:29;17.35;;;5.25;;
56255;SDS011;57229;51.432;-2.598;2024-02-21T01:35:59;11.40;;;5.47;;
56255;SDS011;57229;51.432;-2.598;2024-02-21T01:38:26;11.30;;;5.25;;
56255;SDS011;57229;51.432;-2.598;2024-02-21T01:40:52;12.55;;;5.88;;
56255;SDS011;57229;51.432;-2.598;2024-02-21T01:43:18;18.15;;;5.53;;
56255;SDS011;57229;51.432;-2.598;2024-02-21T01:45:46;16.38;;;5.70;;
56255;SDS011;57229;51.432;-2.598;2024-02-21T01:48:15;14.38;;;5.55;;
56255;SDS011;57229;51.432;-2.598;2024-02-21T01:50:43;17.33;;;5.47;;
56255;SDS011;57229;51.432;-2.598;2024-02-21T01:53:09;9.98;;;5.57;;
56255;SDS011;57229;51.432;-2.598;2024-02-21T01:55:36;12.93;;;5.65;;
56255;SDS011;57229;51.432;-2.598;2024-02-21T01:58:02;13.90;;;5.60;;
56255;SDS011;57229;51.432;-2.598;2024-02-21T02:00:28;14.77;;;6.03;;
56255;SDS011;57229;51.432;-2.598;2024-02-21T02:02:53;17.23;;;5.97;;
56255;SDS011;57229;51.432;-2.598;2024-02-21T02:08:22;16.58;;;5.85;;
56255;SDS011;57229;51.432;-2.598;2024-02-21T02:10:48;13.43;;;5.90;;
56255;SDS011;57229;51.432;-2.598;2024-02-21T02:13:14;13.40;;;6.20;;
56255;SDS011;57229;51.432;-2.598;2024-02-21T02:15:44;14.52;;;6.32;;
56255;SDS011;57229;51.432;-2.598;2024-02-21T02:18:11;16.00;;;5.93;;
56255;SDS011;57229;51.432;-2.598;2024-02-21T02:20:37;15.50;;;5.90;;
56255;SDS011;57229;51.432;-2.598;2024-02-21T02:23:07;15.98;;;5.63;;
56255;SDS011;57229;51.432;-2.598;2024-02-21T02:25:36;13.25;;;5.55;;
56255;SDS011;57229;51.432;-2.598;2024-02-21T02:28:05;13.85;;;5.82;;
56255;SDS011;57229;51.432;-2.598;2024-02-21T02:30:33;11.98;;;5.57;;
56255;SDS011;57229;51.432;-2.598;2024-02-21T02:33:04;14.57;;;5.70;;
56255;SDS011;57229;51.432;-2.598;2024-02-21T02:35:30;12.35;;;5.28;;
56255;SDS011;57229;51.432;-2.598;2024-02-21T02:37:56;13.02;;;5.25;;
56255;SDS011;57229;51.432;-2.598;2024-02-21T02:40:21;11.40;;;5.15;;
56255;SDS011;57229;51.432;-2.598;2024-02-21T02:42:48;9.38;;;5.25;;
56255;SDS011;57229;51.432;-2.598;2024-02-21T02:45:14;7.85;;;4.70;;
56255;SDS011;57229;51.432;-2.598;2024-02-21T02:47:40;10.93;;;5.28;;
56255;SDS011;57229;51.432;-2.598;2024-02-21T02:50:06;12.43;;;5.57;;
56255;SDS011;57229;51.432;-2.598;2024-02-21T02:52:38;10.63;;;5.30;;
56255;SDS011;57229;51.432;-2.598;2024-02-21T02:55:05;12.38;;;5.10;;
56255;SDS011;57229;51.432;-2.598;2024-02-21T02:57:31;7.95;;;5.30;;
56255;SDS011;57229;51.432;-2.598;2024-02-21T02:59:57;13.13;;;5.30;;
56255;SDS011;57229;51.432;-2.598;2024-02-21T03:02:23;14.00;;;5.75;;
56255;SDS011;57229;51.432;-2.598;2024-02-21T03:04:48;13.65;;;5.30;;
56255;SDS011;57229;51.432;-2.598;2024-02-21T03:07:16;11.27;;;5.55;;
56255;SDS011;57229;51.432;-2.598;2024-02-21T03:09:42;14.48;;;6.13;;
56255;SDS011;57229;51.432;-2.598;2024-02-21T03:12:08;7.63;;;5.57;;
56255;SDS011;57229;51.432;-2.598;2024-02-21T03:14:34;11.75;;;5.25;;
56255;SDS011;57229;51.432;-2.598;2024-02-21T03:17:00;8.50;;;5.88;;
56255;SDS011;57229;51.432;-2.598;2024-02-21T03:19:29;13.02;;;5.88;;
56255;SDS011;57229;51.432;-2.598;2024-02-21T03:21:55;10.57;;;5.65;;
56255;SDS011;57229;51.432;-2.598;2024-02-21T03:24:21;10.50;;;6.28;;
56255;SDS011;57229;51.432;-2.598;2024-02-21T03:26:48;13.38;;;6.20;;
56255;SDS011;57229;51.432;-2.598;2024-02-21T03:29:14;14.02;;;5.72;;
56255;SDS011;57229;51.432;-2.598;2024-02-21T03:31:40;10.77;;;6.55;;
56255;SDS011;57229;51.432;-2.598;2024-02-21T03:34:07;16.38;;;6.90;;
56255;SDS011;57229;51.432;-2.598;2024-02-21T03:36:33;12.27;;;6.25;;
56255;SDS011;57229;51.432;-2.598;2024-02-21T03:41:51;11.50;;;6.20;;
56255;SDS011;57229;51.432;-2.598;2024-02-21T03:44:23;10.38;;;5.85;;
56255;SDS011;57229;51.432;-2.598;2024-02-21T03:46:49;10.43;;;6.10;;
56255;SDS011;57229;51.432;-2.598;2024-02-21T03:49:15;11.80;;;5.90;;
56255;SDS011;57229;51.432;-2.598;2024-02-21T03:51:40;15.48;;;5.97;;
56255;SDS011;57229;51.432;-2.598;2024-02-21T03:54:06;16.80;;;6.25;;
56255;SDS011;57229;51.432;-2.598;2024-02-21T03:56:32;6.85;;;5.78;;
56255;SDS011;57229;51.432;-2.598;2024-02-21T03:59:02;13.30;;;5.75;;
56255;SDS011;57229;51.432;-2.598;2024-02-21T04:01:28;10.35;;;5.50;;
56255;SDS011;57229;51.432;-2.598;2024-02-21T04:03:54;12.02;;;5.63;;
56255;SDS011;57229;51.432;-2.598;2024-02-21T04:06:23;10.32;;;4.85;;
56255;SDS011;57229;51.432;-2.598;2024-02-21T04:08:49;7.18;;;5.22;;
56255;SDS011;57229;51.432;-2.598;2024-02-21T04:11:15;13.88;;;5.38;;
56255;SDS011;57229;51.432;-2.598;2024-02-21T04:13:42;10.20;;;5.50;;
56255;SDS011;57229;51.432;-2.598;2024-02-21T04:16:08;8.00;;;5.45;;
56255;SDS011;57229;51.432;-2.598;2024-02-21T04:18:34;9.70;;;5.80;;
56255;SDS011;57229;51.432;-2.598;2024-02-21T04:21:00;11.75;;;6.10;;
56255;SDS011;57229;51.432;-2.598;2024-02-21T04:23:25;14.13;;;6.05;;
56255;SDS011;57229;51.432;-2.598;2024-02-21T04:25:53;15.00;;;5.35;;
56255;SDS011;57229;51.432;-2.598;2024-02-21T04:28:19;9.98;;;6.00;;
56255;SDS011;57229;51.432;-2.598;2024-02-21T04:30:45;9.85;;;6.20;;
56255;SDS011;57229;51.432;-2.598;2024-02-21T04:33:21;14.38;;;6.82;;
56255;SDS011;57229;51.432;-2.598;2024-02-21T04:35:46;12.13;;;6.97;;
56255;SDS011;57229;51.432;-2.598;2024-02-21T04:38:12;10.43;;;6.80;;
56255;SDS011;57229;51.432;-2.598;2024-02-21T04:40:40;10.40;;;6.53;;
56255;SDS011;57229;51.432;-2.598;2024-02-21T04:43:12;11.75;;;6.47;;
56255;SDS011;57229;51.432;-2.598;2024-02-21T04:45:44;13.15;;;6.82;;
56255;SDS011;57229;51.432;-2.598;2024-02-21T04:48:15;17.67;;;7.30;;
56255;SDS011;57229;51.432;-2.598;2024-02-21T04:50:45;11.25;;;6.68;;
56255;SDS011;57229;51.432;-2.598;2024-02-21T04:53:32;12.50;;;6.93;;
56255;SDS011;57229;51.432;-2.598;2024-02-21T04:55:57;15.10;;;6.95;;
56255;SDS011;57229;51.432;-2.598;2024-02-21T04:58:23;13.20;;;7.13;;
56255;SDS011;57229;51.432;-2.598;2024-02-21T05:00:50;13.43;;;7.50;;
56255;SDS011;57229;51.432;-2.598;2024-02-21T05:03:16;13.93;;;7.40;;
56255;SDS011;57229;51.432;-2.598;2024-02-21T05:05:41;8.40;;;6.43;;
56255;SDS011;57229;51.432;-2.598;2024-02-21T05:08:09;11.25;;;6.40;;
56255;SDS011;57229;51.432;-2.598;2024-02-21T05:10:35;12.48;;;6.50;;
56255;SDS011;57229;51.432;-2.598;2024-02-21T05:13:01;9.18;;;6.50;;
56255;SDS011;57229;51.432;-2.598;2024-02-21T05:15:26;9.30;;;6.43;;
56255;SDS011;57229;51.432;-2.598;2024-02-21T05:17:52;9.43;;;6.80;;
56255;SDS011;57229;51.432;-2.598;2024-02-21T05:20:18;9.00;;;7.00;;
56255;SDS011;57229;51.432;-2.598;2024-02-21T05:22:43;7.00;;;5.97;;
56255;SDS011;57229;51.432;-2.598;2024-02-21T05:25:09;10.10;;;8.10;;
56255;SDS011;57229;51.432;-2.598;2024-02-21T05:27:35;9.70;;;7.18;;
56255;SDS011;57229;51.432;-2.598;2024-02-21T05:30:11;11.27;;;8.02;;
56255;SDS011;57229;51.432;-2.598;2024-02-21T05:32:37;10.02;;;7.22;;
56255;SDS011;57229;51.432;-2.598;2024-02-21T05:35:03;7.57;;;6.97;;
56255;SDS011;57229;51.432;-2.598;2024-02-21T05:37:32;9.20;;;7.32;;
56255;SDS011;57229;51.432;-2.598;2024-02-21T05:39:58;13.65;;;7.32;;
56255;SDS011;57229;51.432;-2.598;2024-02-21T05:42:32;10.07;;;7.47;;
56255;SDS011;57229;51.432;-2.598;2024-02-21T05:45:05;11.73;;;8.45;;
56255;SDS011;57229;51.432;-2.598;2024-02-21T05:47:31;7.88;;;7.15;;
56255;SDS011;57229;51.432;-2.598;2024-02-21T05:49:56;10.45;;;7.25;;
56255;SDS011;57229;51.432;-2.598;2024-02-21T05:52:22;10.65;;;7.95;;
56255;SDS011;57229;51.432;-2.598;2024-02-21T05:54:54;11.77;;;7.35;;
56255;SDS011;57229;51.432;-2.598;2024-02-21T05:57:23;11.55;;;7.47;;
56255;SDS011;57229;51.432;-2.598;2024-02-21T05:59:48;10.35;;;7.20;;
56255;SDS011;57229;51.432;-2.598;2024-02-21T06:02:14;18.10;;;7.97;;
56255;SDS011;57229;51.432;-2.598;2024-02-21T06:04:40;9.80;;;7.38;;
56255;SDS011;57229;51.432;-2.598;2024-02-21T06:07:07;9.98;;;7.47;;
56255;SDS011;57229;51.432;-2.598;2024-02-21T06:09:33;10.23;;;7.50;;
56255;SDS011;57229;51.432;-2.598;2024-02-21T06:12:02;13.82;;;7.82;;
56255;SDS011;57229;51.432;-2.598;2024-02-21T06:14:31;10.27;;;7.07;;
56255;SDS011;57229;51.432;-2.598;2024-02-21T06:16:57;9.68;;;7.30;;
56255;SDS011;57229;51.432;-2.598;2024-02-21T06:19:23;10.50;;;7.32;;
56255;SDS011;57229;51.432;-2.598;2024-02-21T06:21:48;11.95;;;7.47;;
56255;SDS011;57229;51.432;-2.598;2024-02-21T06:24:14;7.95;;;7.03;;
56255;SDS011;57229;51.432;-2.598;2024-02-21T06:26:40;9.93;;;7.28;;
56255;SDS011;57229;51.432;-2.598;2024-02-21T06:29:06;8.95;;;7.70;;
56255;SDS011;57229;51.432;-2.598;2024-02-21T06:31:31;12.00;;;7.38;;
56255;SDS011;57229;51.432;-2.598;2024-02-21T06:33:57;8.88;;;6.88;;
56255;SDS011;57229;51.432;-2.598;2024-02-21T06:36:32;10.75;;;7.38;;
56255;SDS011;57229;51.432;-2.598;2024-02-21T06:39:01;16.23;;;7.60;;
56255;SDS011;57229;51.432;-2.598;2024-02-21T06:41:30;9.98;;;6.68;;
56255;SDS011;57229;51.432;-2.598;2024-02-21T06:43:57;13.50;;;7.13;;
56255;SDS011;57229;51.432;-2.598;2024-02-21T06:46:26;10.57;;;8.40;;
56255;SDS011;57229;51.432;-2.598;2024-02-21T06:48:53;12.75;;;7.35;;
56255;SDS011;57229;51.432;-2.598;2024-02-21T06:51:30;12.00;;;6.82;;
56255;SDS011;57229;51.432;-2.598;2024-02-21T06:53:55;9.90;;;7.10;;
56255;SDS011;57229;51.432;-2.598;2024-02-21T06:56:24;11.77;;;7.20;;
56255;SDS011;57229;51.432;-2.598;2024-02-21T06:58:54;13.75;;;7.65;;
56255;SDS011;57229;51.432;-2.598;2024-02-21T07:01:20;14.60;;;7.90;;
56255;SDS011;57229;51.432;-2.598;2024-02-21T07:03:46;14.82;;;7.50;;
56255;SDS011;57229;51.432;-2.598;2024-02-21T07:06:17;11.55;;;8.00;;
56255;SDS011;57229;51.432;-2.598;2024-02-21T07:08:43;11.98;;;8.07;;
56255;SDS011;57229;51.432;-2.598;2024-02-21T07:11:09;13.18;;;7.93;;
56255;SDS011;57229;51.432;-2.598;2024-02-21T07:13:34;9.57;;;8.00;;
56255;SDS011;57229;51.432;-2.598;2024-02-21T07:16:00;15.13;;;8.82;;
56255;SDS011;57229;51.432;-2.598;2024-02-21T07:18:26;8.40;;;7.70;;
56255;SDS011;57229;51.432;-2.598;2024-02-21T07:20:52;11.18;;;7.68;;
56255;SDS011;57229;51.432;-2.598;2024-02-21T07:23:18;12.02;;;7.35;;
56255;SDS011;57229;51.432;-2.598;2024-02-21T07:25:44;13.18;;;8.02;;
56255;SDS011;57229;51.432;-2.598;2024-02-21T07:28:10;10.07;;;7.20;;
56255;SDS011;57229;51.432;-2.598;2024-02-21T07:30:35;11.85;;;7.15;;
56255;SDS011;57229;51.432;-2.598;2024-02-21T07:33:01;10.45;;;7.40;;
56255;SDS011;57229;51.432;-2.598;2024-02-21T07:35:28;7.97;;;7.10;;
56255;SDS011;57229;51.432;-2.598;2024-02-21T07:37:53;7.60;;;6.90;;
56255;SDS011;57229;51.432;-2.598;2024-02-21T07:40:19;12.07;;;7.68;;
56255;SDS011;57229;51.432;-2.598;2024-02-21T07:42:45;8.55;;;7.70;;
56255;SDS011;57229;51.432;-2.598;2024-02-21T07:45:10;9.60;;;7.80;;
56255;SDS011;57229;51.432;-2.598;2024-02-21T07:47:36;7.85;;;7.00;;
56255;SDS011;57229;51.432;-2.598;2024-02-21T07:50:03;7.40;;;6.68;;
56255;SDS011;57229;51.432;-2.598;2024-02-21T07:52:29;9.40;;;6.90;;
56255;SDS011;57229;51.432;-2.598;2024-02-21T07:54:55;7.85;;;7.07;;
56255;SDS011;57229;51.432;-2.598;2024-02-21T07:57:20;8.05;;;7.45;;
56255;SDS011;57229;51.432;-2.598;2024-02-21T07:59:47;8.18;;;7.45;;
56255;SDS011;57229;51.432;-2.598;2024-02-21T08:02:13;8.68;;;7.80;;
56255;SDS011;57229;51.432;-2.598;2024-02-21T08:04:39;7.70;;;7.20;;
56255;SDS011;57229;51.432;-2.598;2024-02-21T08:07:09;8.50;;;7.70;;
56255;SDS011;57229;51.432;-2.598;2024-02-21T08:09:35;8.13;;;7.32;;
56255;SDS011;57229;51.432;-2.598;2024-02-21T08:12:04;12.95;;;6.78;;
56255;SDS011;57229;51.432;-2.598;2024-02-21T08:14:30;9.95;;;7.13;;
56255;SDS011;57229;51.432;-2.598;2024-02-21T08:16:56;10.25;;;7.18;;
56255;SDS011;57229;51.432;-2.598;2024-02-21T08:19:21;8.23;;;7.40;;
56255;SDS011;57229;51.432;-2.598;2024-02-21T08:21:47;8.00;;;7.20;;
56255;SDS011;57229;51.432;-2.598;2024-02-21T08:24:16;8.20;;;7.60;;
56255;SDS011;57229;51.432;-2.598;2024-02-21T08:26:42;8.23;;;7.43;;
56255;SDS011;57229;51.432;-2.598;2024-02-21T08:29:09;8.15;;;7.40;;
56255;SDS011;57229;51.432;-2.598;2024-02-21T08:31:35;8.38;;;7.63;;
56255;SDS011;57229;51.432;-2.598;2024-02-21T08:34:01;8.93;;;8.10;;
56255;SDS011;57229;51.432;-2.598;2024-02-21T08:38:56;9.18;;;8.27;;
56255;SDS011;57229;51.432;-2.598;2024-02-21T08:41:23;8.30;;;7.75;;
56255;SDS011;57229;51.432;-2.598;2024-02-21T08:43:50;8.40;;;7.63;;
56255;SDS011;57229;51.432;-2.598;2024-02-21T08:46:16;9.13;;;8.20;;
56255;SDS011;57229;51.432;-2.598;2024-02-21T08:48:42;8.65;;;8.05;;
56255;SDS011;57229;51.432;-2.598;2024-02-21T08:51:11;9.07;;;8.13;;
56255;SDS011;57229;51.432;-2.598;2024-02-21T08:53:37;12.85;;;8.40;;
56255;SDS011;57229;51.432;-2.598;2024-02-21T08:56:09;8.70;;;8.00;;
56255;SDS011;57229;51.432;-2.598;2024-02-21T08:58:41;9.90;;;8.95;;
56255;SDS011;57229;51.432;-2.598;2024-02-21T09:01:07;8.70;;;7.90;;
56255;SDS011;57229;51.432;-2.598;2024-02-21T09:03:37;9.45;;;8.18;;
56255;SDS011;57229;51.432;-2.598;2024-02-21T09:06:06;8.77;;;7.97;;
56255;SDS011;57229;51.432;-2.598;2024-02-21T09:08:33;8.98;;;7.88;;
56255;SDS011;57229;51.432;-2.598;2024-02-21T09:10:59;9.10;;;8.20;;
56255;SDS011;57229;51.432;-2.598;2024-02-21T09:13:47;8.65;;;7.88;;
56255;SDS011;57229;51.432;-2.598;2024-02-21T09:16:12;8.48;;;7.70;;
56255;SDS011;57229;51.432;-2.598;2024-02-21T09:18:44;9.40;;;8.05;;
56255;SDS011;57229;51.432;-2.598;2024-02-21T09:21:11;8.32;;;7.57;;
56255;SDS011;57229;51.432;-2.598;2024-02-21T09:23:37;7.55;;;7.00;;
56255;SDS011;57229;51.432;-2.598;2024-02-21T09:26:03;7.65;;;6.82;;
56255;SDS011;57229;51.432;-2.598;2024-02-21T09:28:29;8.00;;;7.32;;
56255;SDS011;57229;51.432;-2.598;2024-02-21T09:30:55;8.30;;;7.60;;
56255;SDS011;57229;51.432;-2.598;2024-02-21T09:33:21;8.10;;;7.60;;
56255;SDS011;57229;51.432;-2.598;2024-02-21T09:35:46;9.88;;;7.50;;
56255;SDS011;57229;51.432;-2.598;2024-02-21T09:38:13;8.10;;;7.60;;
56255;SDS011;57229;51.432;-2.598;2024-02-21T09:40:39;7.93;;;7.40;;
56255;SDS011;57229;51.432;-2.598;2024-02-21T09:43:07;7.35;;;6.95;;
56255;SDS011;57229;51.432;-2.598;2024-02-21T09:45:33;7.28;;;6.90;;
56255;SDS011;57229;51.432;-2.598;2024-02-21T09:50:52;8.10;;;7.60;;
56255;SDS011;57229;51.432;-2.598;2024-02-21T09:53:20;7.50;;;7.10;;
56255;SDS011;57229;51.432;-2.598;2024-02-21T09:55:46;8.02;;;7.43;;
56255;SDS011;57229;51.432;-2.598;2024-02-21T09:58:13;7.72;;;7.25;;
56255;SDS011;57229;51.432;-2.598;2024-02-21T10:00:40;6.47;;;6.10;;
56255;SDS011;57229;51.432;-2.598;2024-02-21T10:03:05;6.40;;;6.03;;
56255;SDS011;57229;51.432;-2.598;2024-02-21T10:05:34;7.00;;;6.40;;
56255;SDS011;57229;51.432;-2.598;2024-02-21T10:08:00;6.28;;;5.97;;
56255;SDS011;57229;51.432;-2.598;2024-02-21T10:10:26;7.65;;;6.45;;
56255;SDS011;57229;51.432;-2.598;2024-02-21T10:12:52;7.38;;;6.82;;
56255;SDS011;57229;51.432;-2.598;2024-02-21T10:15:22;7.43;;;6.93;;
56255;SDS011;57229;51.432;-2.598;2024-02-21T10:17:50;6.97;;;6.47;;
56255;SDS011;57229;51.432;-2.598;2024-02-21T10:20:23;6.85;;;6.35;;
56255;SDS011;57229;51.432;-2.598;2024-02-21T10:22:59;7.57;;;6.93;;
56255;SDS011;57229;51.432;-2.598;2024-02-21T10:25:34;7.00;;;6.65;;
56255;SDS011;57229;51.432;-2.598;2024-02-21T10:28:03;7.28;;;6.88;;
56255;SDS011;57229;51.432;-2.598;2024-02-21T10:30:29;7.25;;;6.68;;
56255;SDS011;57229;51.432;-2.598;2024-02-21T10:32:55;7.60;;;6.90;;
56255;SDS011;57229;51.432;-2.598;2024-02-21T10:35:31;6.70;;;6.30;;
56255;SDS011;57229;51.432;-2.598;2024-02-21T10:37:58;7.32;;;6.70;;
56255;SDS011;57229;51.432;-2.598;2024-02-21T10:40:25;7.55;;;7.15;;
56255;SDS011;57229;51.432;-2.598;2024-02-21T10:42:56;8.32;;;7.80;;
56255;SDS011;57229;51.432;-2.598;2024-02-21T10:45:31;9.70;;;8.70;;
56255;SDS011;57229;51.432;-2.598;2024-02-21T10:50:51;9.82;;;8.20;;
56255;SDS011;57229;51.432;-2.598;2024-02-21T10:55:54;8.55;;;7.90;;
56255;SDS011;57229;51.432;-2.598;2024-02-21T10:58:25;8.20;;;7.60;;
56255;SDS011;57229;51.432;-2.598;2024-02-21T11:00:53;7.95;;;7.30;;
56255;SDS011;57229;51.432;-2.598;2024-02-21T11:03:19;8.45;;;8.00;;
56255;SDS011;57229;51.432;-2.598;2024-02-21T11:05:45;9.85;;;7.80;;
56255;SDS011;57229;51.432;-2.598;2024-02-21T11:08:11;8.15;;;7.75;;
56255;SDS011;57229;51.432;-2.598;2024-02-21T11:10:37;9.32;;;8.82;;
56255;SDS011;57229;51.432;-2.598;2024-02-21T11:15:32;9.20;;;8.40;;
56255;SDS011;57229;51.432;-2.598;2024-02-21T11:17:58;9.75;;;8.93;;
56255;SDS011;57229;51.432;-2.598;2024-02-21T11:20:33;8.50;;;7.90;;
56255;SDS011;57229;51.432;-2.598;2024-02-21T11:23:00;7.95;;;7.55;;
56255;SDS011;57229;51.432;-2.598;2024-02-21T11:25:29;8.27;;;7.63;;
56255;SDS011;57229;51.432;-2.598;2024-02-21T11:27:59;8.10;;;7.50;;
56255;SDS011;57229;51.432;-2.598;2024-02-21T11:30:26;7.13;;;6.63;;
56255;SDS011;57229;51.432;-2.598;2024-02-21T11:33:02;7.65;;;7.00;;
56255;SDS011;57229;51.432;-2.598;2024-02-21T11:35:31;7.57;;;7.00;;
56255;SDS011;57229;51.432;-2.598;2024-02-21T11:38:10;7.30;;;6.90;;
56255;SDS011;57229;51.432;-2.598;2024-02-21T11:40:45;7.57;;;6.88;;
56255;SDS011;57229;51.432;-2.598;2024-02-21T11:43:11;7.60;;;7.10;;
56255;SDS011;57229;51.432;-2.598;2024-02-21T11:45:37;7.93;;;7.13;;
56255;SDS011;57229;51.432;-2.598;2024-02-21T11:48:05;7.43;;;6.90;;
56255;SDS011;57229;51.432;-2.598;2024-02-21T11:50:31;7.15;;;6.68;;
56255;SDS011;57229;51.432;-2.598;2024-02-21T11:52:57;6.65;;;6.10;;
56255;SDS011;57229;51.432;-2.598;2024-02-21T11:55:23;7.38;;;6.97;;
56255;SDS011;57229;51.432;-2.598;2024-02-21T11:57:51;6.90;;;6.50;;
56255;SDS011;57229;51.432;-2.598;2024-02-21T12:00:20;7.32;;;6.93;;
56255;SDS011;57229;51.432;-2.598;2024-02-21T12:02:46;7.57;;;6.97;;
56255;SDS011;57229;51.432;-2.598;2024-02-21T12:05:12;12.85;;;7.85;;
56255;SDS011;57229;51.432;-2.598;2024-02-21T12:07:39;7.25;;;6.85;;
56255;SDS011;57229;51.432;-2.598;2024-02-21T12:10:09;7.15;;;6.65;;
56255;SDS011;57229;51.432;-2.598;2024-02-21T12:12:35;8.02;;;7.35;;
56255;SDS011;57229;51.432;-2.598;2024-02-21T12:15:03;8.15;;;7.50;;
56255;SDS011;57229;51.432;-2.598;2024-02-21T12:17:29;7.03;;;6.53;;
56255;SDS011;57229;51.432;-2.598;2024-02-21T12:19:59;7.57;;;6.88;;
56255;SDS011;57229;51.432;-2.598;2024-02-21T12:22:25;7.20;;;6.53;;
56255;SDS011;57229;51.432;-2.598;2024-02-21T12:24:52;6.93;;;6.43;;
56255;SDS011;57229;51.432;-2.598;2024-02-21T12:27:17;6.63;;;6.22;;
56255;SDS011;57229;51.432;-2.598;2024-02-21T12:29:43;7.50;;;6.90;;
56255;SDS011;57229;51.432;-2.598;2024-02-21T12:32:08;7.20;;;6.70;;
56255;SDS011;57229;51.432;-2.598;2024-02-21T12:34:34;7.03;;;6.50;;
56255;SDS011;57229;51.432;-2.598;2024-02-21T12:37:01;7.25;;;6.85;;
56255;SDS011;57229;51.432;-2.598;2024-02-21T12:39:28;7.15;;;6.75;;
56255;SDS011;57229;51.432;-2.598;2024-02-21T12:41:54;7.47;;;6.80;;
56255;SDS011;57229;51.432;-2.598;2024-02-21T12:44:21;7.35;;;6.80;;
56255;SDS011;57229;51.432;-2.598;2024-02-21T12:46:46;6.65;;;6.05;;
56255;SDS011;57229;51.432;-2.598;2024-02-21T12:49:16;6.05;;;5.65;;
56255;SDS011;57229;51.432;-2.598;2024-02-21T12:51:43;7.35;;;6.70;;
56255;SDS011;57229;51.432;-2.598;2024-02-21T12:54:08;7.10;;;6.70;;
56255;SDS011;57229;51.432;-2.598;2024-02-21T12:56:36;6.95;;;6.55;;
56255;SDS011;57229;51.432;-2.598;2024-02-21T12:59:02;7.80;;;6.78;;
56255;SDS011;57229;51.432;-2.598;2024-02-21T13:01:27;7.53;;;6.93;;
56255;SDS011;57229;51.432;-2.598;2024-02-21T13:03:53;7.25;;;6.70;;
56255;SDS011;57229;51.432;-2.598;2024-02-21T13:06:22;7.43;;;6.70;;
56255;SDS011;57229;51.432;-2.598;2024-02-21T13:08:48;7.10;;;5.43;;
56255;SDS011;57229;51.432;-2.598;2024-02-21T13:11:15;7.35;;;6.85;;
56255;SDS011;57229;51.432;-2.598;2024-02-21T13:13:41;8.18;;;5.80;;
56255;SDS011;57229;51.432;-2.598;2024-02-21T13:16:07;8.07;;;6.93;;
56255;SDS011;57229;51.432;-2.598;2024-02-21T13:18:32;7.75;;;7.10;;
56255;SDS011;57229;51.432;-2.598;2024-02-21T13:21:00;7.80;;;6.78;;
56255;SDS011;57229;51.432;-2.598;2024-02-21T13:23:26;7.38;;;6.82;;
56255;SDS011;57229;51.432;-2.598;2024-02-21T13:25:51;7.40;;;6.90;;
56255;SDS011;57229;51.432;-2.598;2024-02-21T13:28:35;7.68;;;6.93;;
56255;SDS011;57229;51.432;-2.598;2024-02-21T13:37:05;6.95;;;6.38;;
56255;SDS011;57229;51.432;-2.598;2024-02-21T13:39:32;7.20;;;6.80;;
56255;SDS011;57229;51.432;-2.598;2024-02-21T13:41:59;6.95;;;6.45;;
56255;SDS011;57229;51.432;-2.598;2024-02-21T13:44:39;6.60;;;6.20;;
56255;SDS011;57229;51.432;-2.598;2024-02-21T13:47:28;6.70;;;6.20;;
56255;SDS011;57229;51.432;-2.598;2024-02-21T13:50:03;7.05;;;6.60;;
56255;SDS011;57229;51.432;-2.598;2024-02-21T13:52:30;6.50;;;5.90;;
56255;SDS011;57229;51.432;-2.598;2024-02-21T13:54:56;6.90;;;6.50;;
56255;SDS011;57229;51.432;-2.598;2024-02-21T13:57:25;7.82;;;7.32;;
56255;SDS011;57229;51.432;-2.598;2024-02-21T14:00:00;7.18;;;6.78;;
56255;SDS011;57229;51.432;-2.598;2024-02-21T14:02:47;7.45;;;7.05;;
56255;SDS011;57229;51.432;-2.598;2024-02-21T14:05:12;8.18;;;7.68;;
56255;SDS011;57229;51.432;-2.598;2024-02-21T14:07:39;6.47;;;6.07;;
56255;SDS011;57229;51.432;-2.598;2024-02-21T14:10:05;7.30;;;6.80;;
56255;SDS011;57229;51.432;-2.598;2024-02-21T14:12:40;8.18;;;7.32;;
56255;SDS011;57229;51.432;-2.598;2024-02-21T14:15:09;8.02;;;7.22;;
56255;SDS011;57229;51.432;-2.598;2024-02-21T14:17:35;9.70;;;8.25;;
56255;SDS011;57229;51.432;-2.598;2024-02-21T14:20:01;8.70;;;7.50;;
56255;SDS011;57229;51.432;-2.598;2024-02-21T14:22:32;10.15;;;7.03;;
56255;SDS011;57229;51.432;-2.598;2024-02-21T14:24:59;19.15;;;7.72;;
56255;SDS011;57229;51.432;-2.598;2024-02-21T14:27:46;20.27;;;8.30;;
56255;SDS011;57229;51.432;-2.598;2024-02-21T14:30:11;13.90;;;8.35;;
56255;SDS011;57229;51.432;-2.598;2024-02-21T14:32:38;17.45;;;8.80;;
56255;SDS011;57229;51.432;-2.598;2024-02-21T14:35:08;20.20;;;8.55;;
56255;SDS011;57229;51.432;-2.598;2024-02-21T14:37:36;10.80;;;7.10;;
56255;SDS011;57229;51.432;-2.598;2024-02-21T14:40:23;21.30;;;8.45;;
56255;SDS011;57229;51.432;-2.598;2024-02-21T14:42:48;22.02;;;8.52;;
56255;SDS011;57229;51.432;-2.598;2024-02-21T14:45:14;17.75;;;7.90;;
56255;SDS011;57229;51.432;-2.598;2024-02-21T14:48:10;18.27;;;8.38;;
56255;SDS011;57229;51.432;-2.598;2024-02-21T14:50:53;26.35;;;8.98;;
56255;SDS011;57229;51.432;-2.598;2024-02-21T14:53:28;32.22;;;9.35;;
56255;SDS011;57229;51.432;-2.598;2024-02-21T14:55:55;26.98;;;9.70;;